PWF180 EDXW-EDDH
Flight info
| Callsign | PWF180 |
|---|---|
| Flight time | 0h 34m |
| Altitude | 24000 |
| Route | OLDIP1B OLDIP DCT ABFAD/N0417F230 DCT OSTOR T904 RIBSO RIBSO3S |
| Aircraft | CL60/M-SBDE1E2E3FGHIJ4J5J7M3RWXYZ/LB1V1D1 |
Departure
| Time | 2026-04-25 17:16 |
|---|---|
| Airport | Westerland Sylt Airport (EDXW) |
Arrival
| Time | 2026-04-25 17:50 |
|---|---|
| Airport | Hamburg Helmut Schmidt Airport (EDDH) |
| Time | Latitude | Longitude | Altitude | Speed | Heading |
|---|---|---|---|---|---|
| 2026-04-25 17:02 | 54.91182 | 8.32575 | 32 ft | 0 kts | 228° |
| 2026-04-25 17:11 | 54.91171 | 8.32606 | 33 ft | 8 kts | 91° |
| 2026-04-25 17:12 | 54.91141 | 8.32748 | 33 ft | 16 kts | 130° |
| 2026-04-25 17:12 | 54.91055 | 8.32912 | 34 ft | 20 kts | 131° |
| 2026-04-25 17:12 | 54.90944 | 8.33111 | 34 ft | 24 kts | 142° |
| 2026-04-25 17:12 | 54.90772 | 8.33222 | 33 ft | 28 kts | 176° |
| 2026-04-25 17:13 | 54.90559 | 8.33250 | 30 ft | 32 kts | 170° |
| 2026-04-25 17:13 | 54.90485 | 8.33281 | 30 ft | 34 kts | 161° |
| 2026-04-25 17:13 | 54.90277 | 8.33626 | 28 ft | 26 kts | 108° |
| 2026-04-25 17:13 | 54.90241 | 8.33958 | 28 ft | 29 kts | 96° |
| 2026-04-25 17:14 | 54.90250 | 8.34312 | 31 ft | 30 kts | 78° |
| 2026-04-25 17:14 | 54.90291 | 8.34673 | 35 ft | 30 kts | 81° |
| 2026-04-25 17:14 | 54.90326 | 8.35018 | 38 ft | 19 kts | 78° |
| 2026-04-25 17:14 | 54.90335 | 8.35068 | 38 ft | 0 kts | 58° |
| 2026-04-25 17:15 | 54.90336 | 8.35069 | 38 ft | 1 kts | 58° |
| 2026-04-25 17:15 | 54.90365 | 8.35140 | 38 ft | 10 kts | 50° |
| 2026-04-25 17:15 | 54.90412 | 8.35185 | 38 ft | 8 kts | 328° |
| 2026-04-25 17:15 | 54.90566 | 8.34984 | 41 ft | 69 kts | 325° |
| 2026-04-25 17:16 | 54.91193 | 8.34209 | 114 ft | 140 kts | 325° |
| 2026-04-25 17:16 | 54.92000 | 8.33274 | 999 ft | 143 kts | 321° |
| 2026-04-25 17:16 | 54.92750 | 8.32268 | 1947 ft | 145 kts | 323° |
| 2026-04-25 17:16 | 54.93609 | 8.31187 | 2756 ft | 163 kts | 325° |
| 2026-04-25 17:17 | 54.94546 | 8.30021 | 3592 ft | 181 kts | 325° |
| 2026-04-25 17:17 | 54.95645 | 8.28655 | 4341 ft | 203 kts | 325° |
| 2026-04-25 17:17 | 54.96783 | 8.27207 | 5397 ft | 210 kts | 320° |
| 2026-04-25 17:17 | 54.97677 | 8.25240 | 6500 ft | 218 kts | 300° |
| 2026-04-25 17:18 | 54.98044 | 8.22623 | 7402 ft | 240 kts | 278° |
| 2026-04-25 17:18 | 54.97560 | 8.19599 | 8075 ft | 294 kts | 246° |
| 2026-04-25 17:18 | 54.96086 | 8.16870 | 9363 ft | 325 kts | 225° |
| 2026-04-25 17:18 | 54.93996 | 8.15127 | 10736 ft | 352 kts | 202° |
| 2026-04-25 17:19 | 54.91495 | 8.14958 | 11944 ft | 379 kts | 174° |
| 2026-04-25 17:19 | 54.88979 | 8.16750 | 13067 ft | 397 kts | 146° |
| 2026-04-25 17:19 | 54.86828 | 8.19783 | 14092 ft | 407 kts | 138° |
| 2026-04-25 17:19 | 54.84690 | 8.23000 | 15119 ft | 416 kts | 137° |
| 2026-04-25 17:20 | 54.83235 | 8.25192 | 15836 ft | 420 kts | 138° |
| 2026-04-25 17:20 | 54.80139 | 8.29246 | 17194 ft | 427 kts | 147° |
| 2026-04-25 17:20 | 54.77636 | 8.32014 | 18106 ft | 433 kts | 148° |
| 2026-04-25 17:20 | 54.75093 | 8.34804 | 19042 ft | 439 kts | 148° |
| 2026-04-25 17:21 | 54.72480 | 8.37666 | 19912 ft | 445 kts | 148° |
| 2026-04-25 17:21 | 54.69981 | 8.40860 | 20788 ft | 449 kts | 134° |
| 2026-04-25 17:21 | 54.68016 | 8.44921 | 21645 ft | 447 kts | 118° |
| 2026-04-25 17:21 | 54.66636 | 8.49707 | 22356 ft | 447 kts | 105° |
| 2026-04-25 17:22 | 54.65456 | 8.54681 | 23068 ft | 455 kts | 108° |
| 2026-04-25 17:22 | 54.64461 | 8.57852 | 23552 ft | 463 kts | 117° |
| 2026-04-25 17:22 | 54.61646 | 8.63563 | 24033 ft | 481 kts | 137° |
| 2026-04-25 17:22 | 54.58854 | 8.66776 | 24072 ft | 478 kts | 156° |
| 2026-04-25 17:23 | 54.55730 | 8.68560 | 24073 ft | 468 kts | 174° |
| 2026-04-25 17:23 | 54.52583 | 8.68862 | 24073 ft | 455 kts | 190° |
| 2026-04-25 17:23 | 54.49377 | 8.68370 | 24066 ft | 451 kts | 192° |
| 2026-04-25 17:23 | 54.46240 | 8.67864 | 24058 ft | 451 kts | 192° |
| 2026-04-25 17:24 | 54.43092 | 8.67358 | 24067 ft | 451 kts | 192° |
| 2026-04-25 17:24 | 54.40001 | 8.66861 | 24073 ft | 449 kts | 192° |
| 2026-04-25 17:24 | 54.36898 | 8.66361 | 24079 ft | 448 kts | 192° |
| 2026-04-25 17:24 | 54.33813 | 8.65862 | 24078 ft | 448 kts | 192° |
| 2026-04-25 17:25 | 54.30710 | 8.65361 | 24081 ft | 448 kts | 192° |
| 2026-04-25 17:25 | 54.27549 | 8.64849 | 24086 ft | 448 kts | 192° |
| 2026-04-25 17:25 | 54.24427 | 8.64344 | 24093 ft | 447 kts | 192° |
| 2026-04-25 17:25 | 54.21289 | 8.63837 | 24097 ft | 447 kts | 192° |
| 2026-04-25 17:26 | 54.18198 | 8.63336 | 24029 ft | 449 kts | 192° |
| 2026-04-25 17:26 | 54.15062 | 8.62829 | 23576 ft | 450 kts | 192° |
| 2026-04-25 17:26 | 54.11914 | 8.62324 | 23023 ft | 444 kts | 192° |
| 2026-04-25 17:26 | 54.08856 | 8.61834 | 22451 ft | 438 kts | 192° |
| 2026-04-25 17:27 | 54.05888 | 8.61360 | 21905 ft | 432 kts | 192° |
| 2026-04-25 17:27 | 54.02889 | 8.61350 | 21282 ft | 437 kts | 179° |
| 2026-04-25 17:27 | 53.99908 | 8.62476 | 20609 ft | 441 kts | 163° |
| 2026-04-25 17:27 | 53.98951 | 8.63110 | 20388 ft | 441 kts | 158° |
| 2026-04-25 17:28 | 53.94794 | 8.67915 | 19179 ft | 441 kts | 134° |
| 2026-04-25 17:28 | 53.92908 | 8.71950 | 18471 ft | 434 kts | 118° |
| 2026-04-25 17:28 | 53.91489 | 8.76423 | 17970 ft | 424 kts | 112° |
| 2026-04-25 17:28 | 53.90190 | 8.80891 | 17386 ft | 420 kts | 112° |
| 2026-04-25 17:29 | 53.88899 | 8.85306 | 16860 ft | 414 kts | 112° |
| 2026-04-25 17:29 | 53.87624 | 8.89653 | 16341 ft | 406 kts | 112° |
| 2026-04-25 17:29 | 53.86410 | 8.93767 | 16431 ft | 380 kts | 112° |
| 2026-04-25 17:29 | 53.85251 | 8.97687 | 16443 ft | 361 kts | 112° |
| 2026-04-25 17:30 | 53.84156 | 9.01385 | 16282 ft | 351 kts | 112° |
| 2026-04-25 17:30 | 53.83146 | 9.05129 | 15873 ft | 346 kts | 101° |
| 2026-04-25 17:30 | 53.82734 | 9.09064 | 15408 ft | 338 kts | 87° |
| 2026-04-25 17:30 | 53.82523 | 9.13005 | 15035 ft | 336 kts | 88° |
| 2026-04-25 17:31 | 53.82308 | 9.16891 | 14650 ft | 335 kts | 88° |
| 2026-04-25 17:31 | 53.82087 | 9.20820 | 14326 ft | 331 kts | 87° |
| 2026-04-25 17:31 | 53.81871 | 9.24628 | 13956 ft | 330 kts | 88° |
| 2026-04-25 17:31 | 53.81651 | 9.28539 | 13239 ft | 342 kts | 88° |
| 2026-04-25 17:32 | 53.81426 | 9.32647 | 12144 ft | 363 kts | 88° |
| 2026-04-25 17:32 | 53.81377 | 9.36868 | 11384 ft | 361 kts | 80° |
| 2026-04-25 17:32 | 53.81508 | 9.41093 | 10862 ft | 356 kts | 79° |
| 2026-04-25 17:32 | 53.81633 | 9.45195 | 10700 ft | 355 kts | 79° |
| 2026-04-25 17:33 | 53.81767 | 9.49455 | 10576 ft | 361 kts | 79° |
| 2026-04-25 17:33 | 53.81894 | 9.53695 | 10408 ft | 362 kts | 79° |
| 2026-04-25 17:33 | 53.81988 | 9.57906 | 10287 ft | 365 kts | 84° |
| 2026-04-25 17:33 | 53.81616 | 9.62232 | 10128 ft | 374 kts | 101° |
| 2026-04-25 17:34 | 53.80563 | 9.66299 | 9908 ft | 380 kts | 120° |
| 2026-04-25 17:34 | 53.78858 | 9.69664 | 9729 ft | 375 kts | 141° |
| 2026-04-25 17:34 | 53.76671 | 9.72062 | 9538 ft | 373 kts | 155° |
| 2026-04-25 17:34 | 53.74410 | 9.74065 | 9434 ft | 370 kts | 156° |
| 2026-04-25 17:35 | 53.72119 | 9.76077 | 9273 ft | 370 kts | 156° |
| 2026-04-25 17:35 | 53.69833 | 9.78082 | 9140 ft | 368 kts | 156° |
| 2026-04-25 17:35 | 53.67568 | 9.80064 | 9008 ft | 367 kts | 156° |
| 2026-04-25 17:35 | 53.65331 | 9.82019 | 8862 ft | 365 kts | 156° |
| 2026-04-25 17:36 | 53.63124 | 9.83947 | 8737 ft | 349 kts | 156° |
| 2026-04-25 17:36 | 53.61015 | 9.85786 | 8608 ft | 333 kts | 156° |
| 2026-04-25 17:36 | 53.58984 | 9.87552 | 8475 ft | 328 kts | 156° |
| 2026-04-25 17:36 | 53.56930 | 9.89329 | 8049 ft | 331 kts | 156° |
| 2026-04-25 17:37 | 53.54870 | 9.91111 | 7540 ft | 330 kts | 156° |
| 2026-04-25 17:37 | 53.52856 | 9.92851 | 7042 ft | 329 kts | 156° |
| 2026-04-25 17:37 | 53.50819 | 9.94609 | 6534 ft | 327 kts | 155° |
| 2026-04-25 17:37 | 53.48800 | 9.96354 | 6037 ft | 325 kts | 155° |
| 2026-04-25 17:38 | 53.46820 | 9.98074 | 5521 ft | 321 kts | 155° |
| 2026-04-25 17:38 | 53.45484 | 9.99230 | 5176 ft | 318 kts | 155° |
| 2026-04-25 17:38 | 53.42899 | 10.01442 | 4630 ft | 306 kts | 155° |
| 2026-04-25 17:38 | 53.41031 | 10.03024 | 4269 ft | 300 kts | 155° |
| 2026-04-25 17:39 | 53.39199 | 10.04569 | 4012 ft | 289 kts | 155° |
| 2026-04-25 17:39 | 53.37441 | 10.06049 | 4002 ft | 271 kts | 155° |
| 2026-04-25 17:39 | 53.35796 | 10.07449 | 4007 ft | 267 kts | 155° |
| 2026-04-25 17:39 | 53.34117 | 10.08887 | 3979 ft | 267 kts | 155° |
| 2026-04-25 17:40 | 53.32462 | 10.10303 | 3971 ft | 266 kts | 155° |
| 2026-04-25 17:40 | 53.30830 | 10.11702 | 3970 ft | 266 kts | 155° |
| 2026-04-25 17:40 | 53.29333 | 10.13535 | 3969 ft | 266 kts | 126° |
| 2026-04-25 17:40 | 53.28621 | 10.16281 | 3975 ft | 255 kts | 89° |
| 2026-04-25 17:41 | 53.28912 | 10.19052 | 3967 ft | 233 kts | 51° |
| 2026-04-25 17:41 | 53.30002 | 10.20798 | 3970 ft | 209 kts | 13° |
| 2026-04-25 17:41 | 53.31350 | 10.20942 | 3966 ft | 190 kts | 338° |
| 2026-04-25 17:41 | 53.32620 | 10.20358 | 3973 ft | 196 kts | 352° |
| 2026-04-25 17:42 | 53.34000 | 10.20636 | 3963 ft | 205 kts | 3° |
| 2026-04-25 17:42 | 53.35429 | 10.21162 | 3660 ft | 211 kts | 5° |
| 2026-04-25 17:42 | 53.36847 | 10.21701 | 3283 ft | 211 kts | 5° |
| 2026-04-25 17:42 | 53.38263 | 10.21817 | 2990 ft | 195 kts | 341° |
| 2026-04-25 17:43 | 53.39432 | 10.20921 | 2962 ft | 185 kts | 323° |
| 2026-04-25 17:43 | 53.40459 | 10.19576 | 2969 ft | 189 kts | 323° |
| 2026-04-25 17:43 | 53.41602 | 10.18463 | 2972 ft | 190 kts | 330° |
| 2026-04-25 17:43 | 53.42739 | 10.17473 | 2993 ft | 172 kts | 330° |
| 2026-04-25 17:44 | 53.43713 | 10.16605 | 3002 ft | 147 kts | 329° |
| 2026-04-25 17:44 | 53.44584 | 10.15809 | 2982 ft | 141 kts | 328° |
| 2026-04-25 17:44 | 53.45442 | 10.15016 | 2974 ft | 139 kts | 328° |
| 2026-04-25 17:44 | 53.46297 | 10.14226 | 2982 ft | 139 kts | 328° |
| 2026-04-25 17:45 | 53.47130 | 10.13430 | 2992 ft | 139 kts | 327° |
| 2026-04-25 17:45 | 53.47418 | 10.13143 | 2998 ft | 139 kts | 327° |
| 2026-04-25 17:45 | 53.48835 | 10.11837 | 2980 ft | 139 kts | 329° |
| 2026-04-25 17:45 | 53.49699 | 10.11090 | 2991 ft | 140 kts | 330° |
| 2026-04-25 17:46 | 53.50564 | 10.10348 | 2994 ft | 139 kts | 330° |
| 2026-04-25 17:46 | 53.51425 | 10.09609 | 2992 ft | 140 kts | 329° |
| 2026-04-25 17:46 | 53.52304 | 10.08855 | 2899 ft | 143 kts | 330° |
| 2026-04-25 17:46 | 53.53178 | 10.08106 | 2658 ft | 143 kts | 329° |
| 2026-04-25 17:47 | 53.54046 | 10.07363 | 2409 ft | 134 kts | 330° |
| 2026-04-25 17:47 | 53.54838 | 10.06688 | 2136 ft | 121 kts | 329° |
| 2026-04-25 17:47 | 53.55587 | 10.06046 | 1912 ft | 122 kts | 328° |
| 2026-04-25 17:47 | 53.56322 | 10.05413 | 1676 ft | 111 kts | 329° |
| 2026-04-25 17:48 | 53.57600 | 10.04324 | 1266 ft | 98 kts | 326° |
| 2026-04-25 17:48 | 53.58225 | 10.03790 | 1141 ft | 102 kts | 328° |
| 2026-04-25 17:48 | 53.58845 | 10.03258 | 995 ft | 101 kts | 329° |
| 2026-04-25 17:49 | 53.59484 | 10.02711 | 850 ft | 103 kts | 325° |
| 2026-04-25 17:49 | 53.60124 | 10.02159 | 705 ft | 104 kts | 327° |
| 2026-04-25 17:49 | 53.60773 | 10.01599 | 582 ft | 106 kts | 329° |
| 2026-04-25 17:49 | 53.61447 | 10.01020 | 423 ft | 105 kts | 325° |
| 2026-04-25 17:50 | 53.62097 | 10.00414 | 292 ft | 106 kts | 324° |
| 2026-04-25 17:50 | 53.62771 | 9.99849 | 155 ft | 108 kts | 327° |
| 2026-04-25 17:50 | 53.63398 | 9.99276 | 61 ft | 93 kts | 327° |
| 2026-04-25 17:50 | 53.63810 | 9.98912 | 61 ft | 38 kts | 334° |
| 2026-04-25 17:51 | 53.63921 | 9.98832 | 61 ft | 16 kts | 338° |
| 2026-04-25 17:51 | 53.63971 | 9.98861 | 61 ft | 9 kts | 105° |
| 2026-04-25 17:51 | 53.63921 | 9.98976 | 61 ft | 14 kts | 126° |
| 2026-04-25 17:51 | 53.63849 | 9.99137 | 61 ft | 19 kts | 123° |
| 2026-04-25 17:52 | 53.63763 | 9.99347 | 61 ft | 23 kts | 126° |
| 2026-04-25 17:52 | 53.63730 | 9.99422 | 61 ft | 25 kts | 125° |
| 2026-04-25 17:52 | 53.63575 | 9.99781 | 61 ft | 21 kts | 125° |
| 2026-04-25 17:52 | 53.63490 | 9.99983 | 61 ft | 13 kts | 125° |
| 2026-04-25 17:53 | 53.63408 | 10.00030 | 61 ft | 16 kts | 226° |
| 2026-04-25 17:53 | 53.63332 | 9.99870 | 61 ft | 19 kts | 232° |
| 2026-04-25 17:53 | 53.63258 | 9.99731 | 61 ft | 13 kts | 224° |
| 2026-04-25 17:53 | 53.63204 | 9.99636 | 61 ft | 4 kts | 230° |
| 2026-04-25 17:54 | 53.63203 | 9.99635 | 61 ft | 0 kts | 230° |
| 2026-04-25 17:54 | 53.63180 | 9.99588 | 61 ft | 13 kts | 229° |
| 2026-04-25 17:54 | 53.63112 | 9.99437 | 61 ft | 17 kts | 236° |
| 2026-04-25 17:54 | 53.63036 | 9.99255 | 61 ft | 20 kts | 231° |
| 2026-04-25 17:55 | 53.62939 | 9.99057 | 61 ft | 23 kts | 230° |
| 2026-04-25 17:55 | 53.62829 | 9.98835 | 61 ft | 24 kts | 229° |
| 2026-04-25 17:55 | 53.62786 | 9.98800 | 61 ft | 8 kts | 152° |
| 2026-04-25 17:55 | 53.62737 | 9.98847 | 61 ft | 5 kts | 143° |
| 2026-04-25 17:56 | 53.62729 | 9.98894 | 61 ft | 0 kts | 59° |
| 2026-04-25 17:56 | 53.62734 | 9.98908 | 61 ft | 0 kts | 62° |